createdAt,value
2023-03-30T00:01:00.972Z,1.60
2023-03-30T00:03:28.731Z,1.60
2023-03-30T00:05:58.921Z,1.50
2023-03-30T00:08:29.436Z,1.50
2023-03-30T00:11:08.355Z,1.50
2023-03-30T00:13:37.072Z,1.50
2023-03-30T00:16:06.531Z,1.50
2023-03-30T00:18:34.539Z,1.50
2023-03-30T00:21:04.792Z,1.50
2023-03-30T00:23:32.521Z,1.40
2023-03-30T00:26:00.015Z,1.30
2023-03-30T00:28:27.181Z,1.20
2023-03-30T00:30:54.188Z,1.20
2023-03-30T00:33:30.365Z,1.10
2023-03-30T00:36:04.739Z,1.10
2023-03-30T00:38:31.690Z,1.00
2023-03-30T00:41:01.285Z,1.00
2023-03-30T00:43:29.091Z,1.00
2023-03-30T00:45:57.747Z,1.00
2023-03-30T00:48:33.008Z,1.10
2023-03-30T00:51:10.699Z,1.10
2023-03-30T00:53:47.988Z,1.10
2023-03-30T00:56:19.153Z,1.20
2023-03-30T00:58:46.490Z,1.20
2023-03-30T01:01:19.017Z,1.20
2023-03-30T01:03:48.444Z,2.90
2023-03-30T01:06:22.120Z,1.20
2023-03-30T01:08:49.986Z,1.30
2023-03-30T01:11:16.880Z,1.40
2023-03-30T01:13:48.056Z,1.40
2023-03-30T01:16:33.718Z,1.40
2023-03-30T01:19:29.679Z,1.40
2023-03-30T01:22:26.356Z,1.50
2023-03-30T01:25:05.284Z,1.50
2023-03-30T01:27:48.689Z,1.50
2023-03-30T01:30:21.901Z,1.50
2023-03-30T01:33:27.396Z,1.50
2023-03-30T01:36:07.795Z,1.50
2023-03-30T01:39:02.706Z,1.50
2023-03-30T01:41:56.891Z,1.60
2023-03-30T01:44:44.088Z,1.60
2023-03-30T01:47:22.791Z,3.10
2023-03-30T01:50:05.359Z,1.70
2023-03-30T01:52:46.802Z,1.70
2023-03-30T01:55:20.384Z,1.70
2023-03-30T01:57:55.399Z,1.70
2023-03-30T02:00:24.310Z,1.70
2023-03-30T02:03:13.646Z,1.70
2023-03-30T02:05:41.917Z,1.80
2023-03-30T02:08:13.544Z,1.70
2023-03-30T02:10:42.700Z,1.70
2023-03-30T02:13:10.905Z,1.70
2023-03-30T02:15:43.922Z,1.70
2023-03-30T02:18:11.009Z,1.80
2023-03-30T02:20:39.082Z,1.70
2023-03-30T02:23:07.238Z,1.70
2023-03-30T02:25:36.615Z,1.70
2023-03-30T02:28:03.979Z,1.70
2023-03-30T02:30:34.047Z,1.70
2023-03-30T02:33:01.431Z,1.70
2023-03-30T02:35:50.851Z,1.70
2023-03-30T02:38:39.017Z,2.30
2023-03-30T02:41:40.176Z,1.70
2023-03-30T02:44:13.045Z,1.70
2023-03-30T02:46:54.838Z,1.70
2023-03-30T02:49:43.316Z,3.80
2023-03-30T02:52:34.028Z,1.80
2023-03-30T02:55:46.193Z,1.90
2023-03-30T02:58:23.788Z,1.90
2023-03-30T03:00:59.816Z,1.90
2023-03-30T03:03:33.541Z,1.80
2023-03-30T03:06:02.886Z,1.80
2023-03-30T03:08:34.274Z,1.80
2023-03-30T03:11:01.387Z,1.80
2023-03-30T03:13:28.409Z,1.90
2023-03-30T03:15:57.848Z,1.80
2023-03-30T03:18:24.995Z,1.80
2023-03-30T03:20:51.844Z,1.90
2023-03-30T03:23:18.655Z,1.90
2023-03-30T03:25:45.608Z,1.90
2023-03-30T03:28:12.385Z,1.90
2023-03-30T03:30:39.420Z,1.90
2023-03-30T03:33:06.518Z,1.90
2023-03-30T03:35:33.473Z,1.90
2023-03-30T03:38:00.880Z,1.90
2023-03-30T03:40:27.678Z,1.80
2023-03-30T03:42:54.811Z,1.80
2023-03-30T03:45:21.577Z,1.80
2023-03-30T03:47:51.330Z,1.80
2023-03-30T03:50:19.242Z,1.90
2023-03-30T03:52:46.297Z,1.90
2023-03-30T03:55:13.245Z,1.90
2023-03-30T03:57:40.313Z,1.90
2023-03-30T04:00:17.011Z,1.80
2023-03-30T04:02:45.048Z,1.80
2023-03-30T04:05:11.949Z,1.80
2023-03-30T04:07:38.774Z,1.80
2023-03-30T04:10:07.382Z,1.80
2023-03-30T04:12:34.067Z,1.80
2023-03-30T04:15:01.121Z,1.90
2023-03-30T04:17:28.221Z,1.90
2023-03-30T04:19:55.407Z,1.90
2023-03-30T04:22:26.072Z,1.90
2023-03-30T04:24:52.908Z,1.90
2023-03-30T04:27:19.823Z,1.80
2023-03-30T04:29:46.734Z,1.80
2023-03-30T04:32:13.629Z,1.80
2023-03-30T04:34:43.060Z,1.80
2023-03-30T04:37:10.596Z,1.80
2023-03-30T04:39:37.258Z,1.90
2023-03-30T04:42:06.364Z,1.40
2023-03-30T04:44:33.092Z,1.90
2023-03-30T04:46:59.739Z,1.90
2023-03-30T04:49:26.587Z,1.90
2023-03-30T04:51:54.641Z,1.90
2023-03-30T04:54:21.423Z,1.90
2023-03-30T04:56:48.208Z,1.90
2023-03-30T04:59:15.106Z,2.00
2023-03-30T05:01:42.038Z,1.90
2023-03-30T05:04:08.832Z,2.00
2023-03-30T05:06:35.631Z,2.00
2023-03-30T05:09:02.389Z,2.00
2023-03-30T05:11:29.240Z,2.00
2023-03-30T05:13:55.924Z,2.00
2023-03-30T05:16:22.843Z,2.00
2023-03-30T05:18:51.465Z,2.10
2023-03-30T05:21:18.481Z,2.00
2023-03-30T05:23:45.206Z,2.00
2023-03-30T05:26:11.880Z,2.00
2023-03-30T05:28:38.595Z,2.00
2023-03-30T05:31:05.700Z,2.00
2023-03-30T05:33:32.501Z,2.10
2023-03-30T05:35:59.197Z,2.10
2023-03-30T05:38:26.267Z,2.10
2023-03-30T05:40:54.105Z,2.10
2023-03-30T05:43:21.530Z,2.10
2023-03-30T05:45:48.386Z,2.10
2023-03-30T05:48:15.293Z,2.10
2023-03-30T05:50:42.906Z,2.10
2023-03-30T05:53:09.826Z,2.20
2023-03-30T05:55:36.537Z,2.20
2023-03-30T05:58:04.044Z,2.30
2023-03-30T06:00:33.371Z,2.20
2023-03-30T06:03:00.623Z,2.30
2023-03-30T06:05:27.493Z,2.30
2023-03-30T06:07:54.707Z,2.30
2023-03-30T06:10:22.163Z,2.30
2023-03-30T06:12:48.869Z,2.30
2023-03-30T06:15:15.653Z,2.30
2023-03-30T06:17:42.751Z,2.40
2023-03-30T06:20:12.700Z,2.40
2023-03-30T06:22:41.625Z,2.40
2023-03-30T06:25:09.388Z,2.50
2023-03-30T06:27:37.427Z,2.50
2023-03-30T06:30:05.012Z,2.50
2023-03-30T06:32:32.118Z,2.50
2023-03-30T06:34:58.795Z,2.50
2023-03-30T06:37:25.459Z,2.50
2023-03-30T06:39:52.573Z,2.50
2023-03-30T06:42:19.306Z,2.60
2023-03-30T06:44:47.575Z,2.60
2023-03-30T06:47:16.222Z,2.70
2023-03-30T06:49:43.013Z,2.70
2023-03-30T06:52:09.697Z,2.70
2023-03-30T06:54:36.634Z,2.70
2023-03-30T06:57:04.041Z,2.70
2023-03-30T06:59:34.440Z,2.70
2023-03-30T07:02:02.091Z,2.70
2023-03-30T07:04:29.135Z,2.80
2023-03-30T07:06:57.699Z,2.80
2023-03-30T07:09:25.087Z,2.90
2023-03-30T07:11:53.361Z,2.90
2023-03-30T07:14:22.006Z,2.90
2023-03-30T07:16:48.974Z,3.00
2023-03-30T07:19:16.321Z,3.00
2023-03-30T07:21:43.289Z,3.00
2023-03-30T07:24:10.006Z,3.00
2023-03-30T07:26:37.070Z,3.10
2023-03-30T07:29:05.680Z,3.10
2023-03-30T07:31:32.446Z,3.10
2023-03-30T07:33:59.195Z,3.10
2023-03-30T07:36:25.909Z,5.00
2023-03-30T07:38:52.774Z,3.20
2023-03-30T07:41:19.911Z,3.30
2023-03-30T07:43:46.620Z,3.70
2023-03-30T07:46:13.441Z,3.30
2023-03-30T07:48:40.918Z,3.30
2023-03-30T07:51:10.178Z,3.30
2023-03-30T07:53:37.922Z,3.40
2023-03-30T07:56:06.197Z,3.40
2023-03-30T07:58:33.160Z,3.40
2023-03-30T08:01:02.701Z,3.40
2023-03-30T08:03:31.857Z,3.40
2023-03-30T08:06:04.985Z,3.40
2023-03-30T08:08:33.074Z,3.50
2023-03-30T08:10:59.978Z,3.50
2023-03-30T08:13:27.239Z,3.60
2023-03-30T08:15:54.554Z,3.60
2023-03-30T08:18:21.692Z,3.60
2023-03-30T08:20:52.542Z,3.60
2023-03-30T08:23:20.151Z,3.60
2023-03-30T08:25:51.307Z,3.60
2023-03-30T08:28:21.463Z,3.60
2023-03-30T08:30:48.903Z,3.70
2023-03-30T08:33:16.954Z,3.70
2023-03-30T08:35:48.070Z,3.70
2023-03-30T08:38:19.039Z,3.70
2023-03-30T08:40:48.349Z,3.80
2023-03-30T08:43:25.446Z,3.80
2023-03-30T08:45:52.980Z,3.80
2023-03-30T08:48:24.037Z,3.80
2023-03-30T08:51:05.787Z,3.90
2023-03-30T08:53:34.694Z,4.00
2023-03-30T08:56:21.710Z,3.90
2023-03-30T08:59:10.251Z,3.90
2023-03-30T09:01:54.455Z,3.90
2023-03-30T09:04:41.694Z,3.90
2023-03-30T09:07:21.538Z,3.80
2023-03-30T09:09:51.832Z,3.80
2023-03-30T09:12:24.316Z,3.80
2023-03-30T09:15:19.644Z,3.90
2023-03-30T09:17:51.180Z,3.80
2023-03-30T09:20:28.130Z,3.90
2023-03-30T09:22:58.402Z,3.90
2023-03-30T09:25:32.596Z,4.00
2023-03-30T09:28:22.272Z,4.00
2023-03-30T09:31:03.209Z,3.90
2023-03-30T09:33:47.098Z,3.90
2023-03-30T09:36:17.060Z,3.90
2023-03-30T09:38:45.552Z,4.00
2023-03-30T09:41:40.738Z,3.90
2023-03-30T09:44:18.758Z,4.00
2023-03-30T09:46:46.936Z,4.00
2023-03-30T09:49:15.905Z,4.10
2023-03-30T09:52:04.396Z,4.20
2023-03-30T09:54:39.160Z,4.20
2023-03-30T09:57:07.017Z,4.20
2023-03-30T09:59:36.988Z,4.30
2023-03-30T10:02:13.238Z,4.30
2023-03-30T10:05:02.357Z,4.30
2023-03-30T10:07:35.473Z,4.20
2023-03-30T10:10:31.119Z,4.10
2023-03-30T10:13:16.792Z,4.10
2023-03-30T10:15:47.078Z,4.10
2023-03-30T10:18:40.812Z,4.00
2023-03-30T10:21:18.090Z,3.90
2023-03-30T10:23:58.306Z,3.90
2023-03-30T10:26:30.538Z,3.90
2023-03-30T10:29:12.105Z,3.90
2023-03-30T10:31:39.851Z,3.90
2023-03-30T10:34:18.964Z,4.00
2023-03-30T10:36:50.600Z,4.00
2023-03-30T10:39:25.405Z,4.10
2023-03-30T10:41:54.113Z,4.10
2023-03-30T10:44:27.788Z,4.10
2023-03-30T10:47:19.967Z,4.10
2023-03-30T10:50:09.087Z,4.10
2023-03-30T10:52:58.364Z,4.10
2023-03-30T10:55:38.156Z,4.20
2023-03-30T10:58:11.914Z,4.20
2023-03-30T11:00:55.861Z,4.20
2023-03-30T11:03:29.230Z,4.30
2023-03-30T11:06:03.673Z,4.30
2023-03-30T11:08:37.746Z,4.30
2023-03-30T11:11:06.249Z,4.40
2023-03-30T11:13:47.831Z,4.40
2023-03-30T11:16:16.942Z,4.50
2023-03-30T11:18:51.849Z,5.30
2023-03-30T11:21:47.568Z,4.60
2023-03-30T11:24:21.682Z,4.70
2023-03-30T11:26:51.248Z,4.70
2023-03-30T11:29:38.776Z,4.70
2023-03-30T11:32:23.090Z,4.60
2023-03-30T11:35:01.140Z,4.60
2023-03-30T11:37:34.708Z,4.60
2023-03-30T11:40:35.316Z,4.60
2023-03-30T11:43:02.247Z,4.70
2023-03-30T11:45:47.088Z,4.70
2023-03-30T11:48:50.887Z,4.70
2023-03-30T11:51:49.573Z,4.70
2023-03-30T11:54:25.420Z,4.80
2023-03-30T11:57:17.771Z,4.80
2023-03-30T12:00:09.764Z,4.90
2023-03-30T12:02:55.055Z,4.90
2023-03-30T12:05:31.925Z,4.90
2023-03-30T12:08:03.594Z,4.90
2023-03-30T12:11:01.877Z,4.90
2023-03-30T12:13:38.113Z,4.90
2023-03-30T12:16:20.334Z,4.90
2023-03-30T12:18:46.978Z,4.90
2023-03-30T12:21:20.289Z,4.90
2023-03-30T12:24:10.083Z,6.70
2023-03-30T12:26:39.623Z,4.90
2023-03-30T12:31:56.634Z,5.00
2023-03-30T12:34:26.092Z,5.00
2023-03-30T12:37:16.720Z,5.10
2023-03-30T12:39:49.514Z,5.10
2023-03-30T12:42:27.595Z,5.20
2023-03-30T12:45:21.513Z,5.20
2023-03-30T12:48:06.431Z,5.20
2023-03-30T12:50:38.747Z,5.20
2023-03-30T12:53:14.010Z,5.20
2023-03-30T12:55:52.305Z,5.10
2023-03-30T12:58:55.497Z,5.10
2023-03-30T13:01:43.948Z,5.10
2023-03-30T13:04:16.459Z,5.20
2023-03-30T13:06:53.993Z,5.10
2023-03-30T13:09:22.160Z,5.20
2023-03-30T13:11:50.009Z,5.20
2023-03-30T13:14:44.128Z,5.20
2023-03-30T13:17:16.881Z,5.10
2023-03-30T13:20:15.408Z,5.10
2023-03-30T13:23:11.694Z,5.10
2023-03-30T13:26:16.849Z,5.00
2023-03-30T13:28:57.276Z,5.00
2023-03-30T13:31:46.457Z,4.90
2023-03-30T13:34:51.684Z,5.00
2023-03-30T13:37:34.938Z,4.40
2023-03-30T13:40:30.722Z,4.90
2023-03-30T13:43:29.134Z,4.80
2023-03-30T13:46:17.800Z,4.80
2023-03-30T13:49:08.014Z,4.80
2023-03-30T13:51:38.060Z,4.90
2023-03-30T13:54:14.035Z,4.90
2023-03-30T13:56:48.909Z,4.90
2023-03-30T13:59:19.876Z,5.00
2023-03-30T14:01:50.809Z,5.00
2023-03-30T14:04:17.868Z,5.00
2023-03-30T14:06:49.414Z,5.10
2023-03-30T14:09:21.028Z,5.00
2023-03-30T14:11:56.089Z,5.10
2023-03-30T14:14:29.322Z,5.10
2023-03-30T14:16:58.365Z,5.10
2023-03-30T14:19:33.192Z,5.00
2023-03-30T14:22:05.230Z,5.10
2023-03-30T14:24:35.686Z,5.80
2023-03-30T14:27:12.451Z,5.20
2023-03-30T14:29:47.554Z,5.10
2023-03-30T14:32:16.850Z,6.20
2023-03-30T14:34:48.616Z,5.20
2023-03-30T14:37:15.675Z,5.10
2023-03-30T14:39:57.830Z,5.10
2023-03-30T14:42:27.614Z,5.10
2023-03-30T14:44:56.979Z,5.10
2023-03-30T14:47:27.801Z,5.10
2023-03-30T14:50:04.647Z,6.50
2023-03-30T14:52:34.333Z,5.20
2023-03-30T14:55:06.025Z,5.20
2023-03-30T14:57:38.094Z,5.20
2023-03-30T15:00:22.988Z,5.10
2023-03-30T15:03:01.361Z,5.10
2023-03-30T15:05:37.465Z,5.10
2023-03-30T15:08:04.623Z,5.10
2023-03-30T15:10:44.103Z,5.10
2023-03-30T15:13:18.508Z,5.10
2023-03-30T15:15:45.365Z,5.10
2023-03-30T15:18:19.310Z,5.10
2023-03-30T15:20:46.658Z,5.10
2023-03-30T15:23:13.906Z,5.10
2023-03-30T15:25:40.661Z,5.00
2023-03-30T15:28:11.825Z,5.00
2023-03-30T15:30:42.503Z,5.00
2023-03-30T15:33:25.161Z,5.00
2023-03-30T15:35:53.747Z,5.00
2023-03-30T15:38:30.511Z,5.00
2023-03-30T15:40:57.376Z,5.00
2023-03-30T15:43:30.273Z,6.70
2023-03-30T15:46:02.469Z,4.90
2023-03-30T15:48:37.696Z,4.90
2023-03-30T15:51:11.652Z,4.90
2023-03-30T15:53:46.751Z,5.50
2023-03-30T15:56:31.964Z,4.90
2023-03-30T15:58:59.410Z,4.90
2023-03-30T16:01:46.832Z,4.90
2023-03-30T16:04:16.463Z,4.80
2023-03-30T16:06:45.189Z,4.90
2023-03-30T16:09:13.549Z,4.90
2023-03-30T16:11:40.434Z,4.80
2023-03-30T16:14:12.838Z,4.80
2023-03-30T16:16:39.828Z,4.80
2023-03-30T16:19:14.518Z,4.80
2023-03-30T16:21:42.574Z,4.80
2023-03-30T16:24:11.443Z,4.80
2023-03-30T16:26:38.184Z,4.70
2023-03-30T16:29:05.879Z,4.70
2023-03-30T16:31:34.300Z,4.70
2023-03-30T16:34:01.508Z,4.70
2023-03-30T16:36:29.275Z,4.60
2023-03-30T16:38:56.393Z,4.60
2023-03-30T16:41:23.499Z,4.70
2023-03-30T16:43:50.543Z,4.50
2023-03-30T16:46:20.190Z,4.50
2023-03-30T16:48:47.145Z,4.50
2023-03-30T16:51:15.449Z,4.50
2023-03-30T16:53:42.743Z,4.40
2023-03-30T16:56:18.280Z,5.80
2023-03-30T16:58:46.169Z,4.40
2023-03-30T17:01:15.813Z,4.30
2023-03-30T17:03:42.659Z,4.40
2023-03-30T17:06:09.334Z,4.40
2023-03-30T17:08:36.351Z,4.30
2023-03-30T17:11:05.232Z,4.30
2023-03-30T17:13:32.146Z,4.30
2023-03-30T17:16:01.192Z,4.30
2023-03-30T17:18:28.639Z,4.30
2023-03-30T17:20:57.850Z,4.20
2023-03-30T17:23:30.312Z,4.20
2023-03-30T17:25:58.622Z,4.20
2023-03-30T17:28:31.618Z,4.20
2023-03-30T17:31:04.253Z,4.20
2023-03-30T17:33:32.580Z,4.20
2023-03-30T17:36:07.038Z,4.20
2023-03-30T17:38:34.203Z,4.20
2023-03-30T17:41:01.052Z,4.20
2023-03-30T17:43:27.868Z,4.20
2023-03-30T17:45:55.037Z,4.30
2023-03-30T17:48:22.734Z,5.50
2023-03-30T17:50:51.088Z,4.10
2023-03-30T17:53:20.162Z,4.10
2023-03-30T17:55:49.602Z,4.10
2023-03-30T17:58:23.489Z,4.20
2023-03-30T18:00:51.544Z,4.10
2023-03-30T18:03:20.951Z,4.10
2023-03-30T18:05:49.542Z,4.10
2023-03-30T18:08:22.388Z,4.10
2023-03-30T18:10:52.480Z,4.00
2023-03-30T18:13:21.303Z,4.00
2023-03-30T18:15:50.863Z,4.00
2023-03-30T18:18:28.649Z,4.00
2023-03-30T18:21:02.981Z,3.90
2023-03-30T18:23:31.793Z,3.90
2023-03-30T18:25:59.020Z,3.90
2023-03-30T18:28:28.266Z,3.90
2023-03-30T18:30:57.810Z,3.90
2023-03-30T18:33:25.990Z,3.90
2023-03-30T18:35:53.817Z,3.90
2023-03-30T18:38:22.767Z,3.90
2023-03-30T18:40:53.844Z,3.80
2023-03-30T18:43:20.888Z,3.80
2023-03-30T18:45:49.935Z,3.90
2023-03-30T18:48:19.663Z,3.90
2023-03-30T18:50:51.578Z,3.90
2023-03-30T18:53:23.932Z,3.80
2023-03-30T18:56:01.954Z,3.10
2023-03-30T18:58:33.880Z,3.90
2023-03-30T19:01:01.398Z,3.90
2023-03-30T19:03:30.285Z,3.90
2023-03-30T19:05:57.641Z,3.90
2023-03-30T19:08:26.249Z,3.90
2023-03-30T19:10:55.612Z,3.90
2023-03-30T19:13:23.148Z,4.00
2023-03-30T19:15:50.986Z,4.00
2023-03-30T19:18:18.326Z,4.00
2023-03-30T19:20:45.900Z,3.90
2023-03-30T19:23:15.990Z,3.80
2023-03-30T19:25:44.070Z,3.80
2023-03-30T19:28:12.056Z,3.80
2023-03-30T19:30:39.927Z,3.80
2023-03-30T19:33:12.037Z,3.80
2023-03-30T19:35:43.805Z,3.80
2023-03-30T19:38:10.750Z,3.80
2023-03-30T19:40:41.339Z,3.80
2023-03-30T19:43:09.357Z,3.80
2023-03-30T19:45:36.318Z,3.80
2023-03-30T19:48:03.831Z,3.80
2023-03-30T19:50:30.699Z,3.80
2023-03-30T19:52:57.886Z,3.80
2023-03-30T19:55:24.712Z,3.80
2023-03-30T19:57:51.450Z,3.80
2023-03-30T20:00:18.866Z,3.80
2023-03-30T20:02:49.484Z,3.80
2023-03-30T20:05:18.036Z,3.80
2023-03-30T20:07:45.492Z,3.80
2023-03-30T20:10:15.772Z,3.80
2023-03-30T20:12:42.824Z,3.80
2023-03-30T20:15:10.128Z,3.80
2023-03-30T20:17:38.284Z,3.80
2023-03-30T20:20:08.618Z,3.80
2023-03-30T20:22:37.446Z,3.80
2023-03-30T20:25:07.237Z,3.80
2023-03-30T20:27:35.201Z,3.80
2023-03-30T20:30:03.776Z,3.80
2023-03-30T20:32:30.694Z,3.80
2023-03-30T20:34:57.471Z,3.80
2023-03-30T20:37:24.309Z,3.80
2023-03-30T20:39:51.105Z,3.80
2023-03-30T20:42:26.147Z,3.80
2023-03-30T20:44:53.505Z,3.80
2023-03-30T20:47:26.067Z,3.80
2023-03-30T20:49:55.574Z,3.80
2023-03-30T20:52:23.854Z,3.80
2023-03-30T20:54:52.421Z,3.80
2023-03-30T20:57:26.242Z,3.80
2023-03-30T20:59:54.114Z,3.80
2023-03-30T21:02:20.888Z,3.80
2023-03-30T21:04:47.994Z,3.80
2023-03-30T21:07:16.316Z,3.80
2023-03-30T21:09:43.545Z,3.80
2023-03-30T21:12:10.690Z,3.80
2023-03-30T21:14:37.414Z,3.90
2023-03-30T21:17:04.681Z,3.90
2023-03-30T21:19:31.602Z,3.90
2023-03-30T21:22:00.370Z,3.80
2023-03-30T21:24:27.568Z,3.80
2023-03-30T21:26:54.236Z,3.90
2023-03-30T21:29:22.128Z,3.80
2023-03-30T21:31:49.700Z,3.80
2023-03-30T21:34:18.699Z,3.90
2023-03-30T21:36:45.888Z,3.90
2023-03-30T21:39:12.781Z,3.90
2023-03-30T21:41:39.579Z,3.80
2023-03-30T21:44:06.383Z,3.80
2023-03-30T21:46:33.107Z,3.80
2023-03-30T21:48:59.848Z,3.80
2023-03-30T21:51:29.019Z,3.70
2023-03-30T21:53:57.272Z,3.80
2023-03-30T21:56:26.421Z,3.80
2023-03-30T21:58:53.324Z,5.70
2023-03-30T22:01:23.916Z,3.90
2023-03-30T22:03:51.703Z,3.90
2023-03-30T22:06:19.108Z,3.90
2023-03-30T22:08:46.314Z,3.90
2023-03-30T22:11:15.481Z,3.90
2023-03-30T22:13:43.054Z,3.90
2023-03-30T22:16:16.236Z,3.90
2023-03-30T22:18:44.027Z,4.00
2023-03-30T22:21:17.196Z,3.90
2023-03-30T22:23:45.662Z,3.90
2023-03-30T22:26:13.323Z,3.90
2023-03-30T22:28:40.459Z,3.90
2023-03-30T22:31:12.939Z,3.90
2023-03-30T22:33:39.961Z,3.90
2023-03-30T22:36:18.872Z,3.90
2023-03-30T22:38:46.652Z,3.90
2023-03-30T22:41:13.626Z,3.90
2023-03-30T22:43:41.102Z,3.90
2023-03-30T22:46:08.403Z,3.90
2023-03-30T22:48:35.731Z,3.90
2023-03-30T22:51:08.134Z,4.90
2023-03-30T22:53:34.912Z,4.00
2023-03-30T22:56:01.853Z,3.80
2023-03-30T22:58:28.565Z,3.90
2023-03-30T23:01:02.583Z,5.00
2023-03-30T23:03:29.531Z,3.80
2023-03-30T23:06:00.769Z,3.80
2023-03-30T23:08:29.513Z,3.80
2023-03-30T23:10:57.312Z,3.80
2023-03-30T23:13:24.161Z,3.80
2023-03-30T23:15:50.851Z,3.80
2023-03-30T23:18:17.570Z,3.80
2023-03-30T23:20:46.686Z,3.90
2023-03-30T23:23:14.585Z,3.80
2023-03-30T23:25:50.092Z,3.80
2023-03-30T23:28:17.903Z,3.80
2023-03-30T23:30:44.963Z,3.80
2023-03-30T23:33:13.348Z,3.80
2023-03-30T23:35:41.895Z,3.80
2023-03-30T23:38:10.196Z,3.80
2023-03-30T23:40:36.928Z,3.80
2023-03-30T23:43:03.843Z,3.80
2023-03-30T23:45:30.569Z,3.80
2023-03-30T23:47:57.319Z,3.80
2023-03-30T23:50:24.025Z,3.80
2023-03-30T23:52:50.707Z,3.90
2023-03-30T23:55:18.478Z,3.90
2023-03-30T23:57:45.959Z,3.90
